createdAt,value
2018-10-02T00:01:45.098Z,100029.52
2018-10-02T00:04:12.652Z,100033.58
2018-10-02T00:06:40.167Z,100032.38
2018-10-02T00:09:07.782Z,100026.00
2018-10-02T00:11:35.293Z,100031.05
2018-10-02T00:14:08.575Z,100026.75
2018-10-02T00:16:36.078Z,100021.53
2018-10-02T00:19:03.576Z,100021.91
2018-10-02T00:21:31.120Z,100020.58
2018-10-02T00:23:58.676Z,100008.80
2018-10-02T00:26:26.254Z,100014.36
2018-10-02T00:28:53.786Z,100006.48
2018-10-02T00:31:21.422Z,100004.83
2018-10-02T00:33:48.961Z,100006.21
2018-10-02T00:36:16.542Z,100002.50
2018-10-02T00:38:44.056Z,100006.47
2018-10-02T00:41:11.611Z,100004.75
2018-10-02T00:43:39.118Z,100001.92
2018-10-02T00:46:06.774Z,99998.36
2018-10-02T00:48:34.291Z,99992.94
2018-10-02T00:51:01.868Z,100000.30
2018-10-02T00:53:29.443Z,99993.34
2018-10-02T00:55:57.224Z,99991.50
2018-10-02T00:58:24.717Z,99987.99
2018-10-02T01:00:52.249Z,99984.05
2018-10-02T01:03:19.789Z,99980.76
2018-10-02T01:05:47.333Z,99984.36
2018-10-02T01:08:14.861Z,99990.38
2018-10-02T01:10:42.366Z,99990.23
2018-10-02T01:13:09.922Z,99997.32
2018-10-02T01:15:37.465Z,99990.30
2018-10-02T01:18:04.984Z,99991.67
2018-10-02T01:20:32.501Z,99986.47
2018-10-02T01:23:00.023Z,99990.00
2018-10-02T01:25:27.569Z,99993.22
2018-10-02T01:27:55.135Z,99993.42
2018-10-02T01:30:22.662Z,99986.23
2018-10-02T01:32:50.212Z,99989.69
2018-10-02T01:35:17.779Z,99999.41
2018-10-02T01:37:45.300Z,99988.39
2018-10-02T01:40:12.860Z,99986.89
2018-10-02T01:42:40.382Z,99979.27
2018-10-02T01:45:07.903Z,99974.05
2018-10-02T01:47:35.468Z,99972.53
2018-10-02T01:50:02.965Z,99967.66
2018-10-02T01:52:30.623Z,99959.51
2018-10-02T01:54:58.117Z,99962.98
2018-10-02T01:57:25.666Z,99961.19
2018-10-02T01:59:53.164Z,99963.89
2018-10-02T02:02:20.755Z,99958.24
2018-10-02T02:04:48.251Z,99952.03
2018-10-02T02:07:15.812Z,99945.75
2018-10-02T02:09:43.351Z,99955.97
2018-10-02T02:12:10.875Z,99942.95
2018-10-02T02:14:38.401Z,99944.50
2018-10-02T02:17:05.905Z,99948.16
2018-10-02T02:19:33.468Z,99937.94
2018-10-02T02:22:01.000Z,99938.95
2018-10-02T02:24:28.548Z,99944.44
2018-10-02T02:26:56.044Z,99946.09
2018-10-02T02:29:23.592Z,99947.80
2018-10-02T02:31:51.160Z,99944.12
2018-10-02T02:34:18.668Z,99935.19
2018-10-02T02:36:46.179Z,99937.20
2018-10-02T02:39:13.709Z,99937.08
2018-10-02T02:41:41.263Z,99914.05
2018-10-02T02:44:08.780Z,99925.93
2018-10-02T02:46:36.313Z,99932.87
2018-10-02T02:49:20.463Z,99913.55
2018-10-02T02:51:48.068Z,99913.88
2018-10-02T02:54:15.573Z,99915.13
2018-10-02T02:56:43.074Z,99906.11
2018-10-02T02:59:10.638Z,99903.08
2018-10-02T03:01:38.230Z,99890.64
2018-10-02T03:04:05.738Z,99900.88
2018-10-02T03:06:33.380Z,99891.16
2018-10-02T03:09:00.946Z,99882.52
2018-10-02T03:11:28.450Z,99884.33
2018-10-02T03:13:56.020Z,99880.85
2018-10-02T03:16:23.583Z,99878.14
2018-10-02T03:18:51.133Z,99872.18
2018-10-02T03:21:18.626Z,99868.94
2018-10-02T03:23:46.141Z,99853.91
2018-10-02T03:26:13.671Z,99856.20
2018-10-02T03:28:41.222Z,99866.09
2018-10-02T03:31:08.782Z,99866.29
2018-10-02T03:33:36.418Z,99860.18
2018-10-02T03:36:03.932Z,99853.69
2018-10-02T03:38:31.496Z,99846.02
2018-10-02T03:40:59.000Z,99841.55
2018-10-02T03:43:26.546Z,99834.98
2018-10-02T03:45:54.038Z,99847.02
2018-10-02T03:48:21.622Z,99836.02
2018-10-02T03:50:49.131Z,99825.89
2018-10-02T03:53:16.645Z,99818.37
2018-10-02T03:55:44.231Z,99818.44
2018-10-02T03:58:11.743Z,99823.48
2018-10-02T04:00:39.315Z,99828.08
2018-10-02T04:03:06.853Z,99830.66
2018-10-02T04:05:34.418Z,99826.91
2018-10-02T04:08:02.009Z,99825.20
2018-10-02T04:10:29.572Z,99822.84
2018-10-02T04:12:57.133Z,99823.21
2018-10-02T04:15:24.638Z,99820.30
2018-10-02T04:17:52.231Z,99817.11
2018-10-02T04:20:20.635Z,99821.18
2018-10-02T04:22:48.195Z,99800.93
2018-10-02T04:25:15.730Z,99797.09
2018-10-02T04:27:43.323Z,99796.72
2018-10-02T04:30:10.806Z,99777.09
2018-10-02T04:32:38.394Z,99764.71
2018-10-02T04:35:05.901Z,99765.61
2018-10-02T04:37:33.427Z,99771.10
2018-10-02T04:40:01.026Z,99762.05
2018-10-02T04:42:28.628Z,99760.97
2018-10-02T04:44:56.134Z,99753.03
2018-10-02T04:47:23.691Z,99751.22
2018-10-02T04:49:51.185Z,99751.09
2018-10-02T04:52:18.744Z,99755.14
2018-10-02T04:54:46.287Z,99749.70
2018-10-02T04:57:13.852Z,99757.20
2018-10-02T04:59:41.426Z,99763.73
2018-10-02T05:02:08.987Z,99757.05
2018-10-02T05:04:36.518Z,99756.78
2018-10-02T05:07:04.077Z,99751.36
2018-10-02T05:09:31.593Z,99745.92
2018-10-02T05:11:59.145Z,99752.18
2018-10-02T05:14:26.786Z,99750.89
2018-10-02T05:16:54.817Z,99742.54
2018-10-02T05:19:22.355Z,99752.27
2018-10-02T05:21:49.908Z,99743.03
2018-10-02T05:24:17.468Z,99739.95
2018-10-02T05:26:44.979Z,99737.00
2018-10-02T05:29:12.547Z,99743.47
2018-10-02T05:31:40.083Z,99733.61
2018-10-02T05:34:07.714Z,99736.22
2018-10-02T05:36:35.268Z,99729.20
2018-10-02T05:39:02.963Z,99730.07
2018-10-02T05:41:30.719Z,99725.37
2018-10-02T05:43:58.282Z,99730.13
2018-10-02T05:46:25.953Z,99733.66
2018-10-02T05:48:53.538Z,99735.28
2018-10-02T05:51:21.050Z,99731.19
2018-10-02T05:53:48.627Z,99730.08
2018-10-02T05:56:16.132Z,99736.88
2018-10-02T05:58:43.695Z,99724.06
2018-10-02T06:01:11.249Z,99722.88
2018-10-02T06:03:38.874Z,99720.73
2018-10-02T06:06:06.405Z,99714.11
2018-10-02T06:08:34.072Z,99701.75
2018-10-02T06:11:01.599Z,99707.83
2018-10-02T06:13:29.210Z,99699.62
2018-10-02T06:15:56.997Z,99689.33
2018-10-02T06:18:24.625Z,99680.75
2018-10-02T06:20:52.300Z,99676.72
2018-10-02T06:23:20.105Z,99677.44
2018-10-02T06:25:47.669Z,99671.82
2018-10-02T06:28:15.245Z,99665.16
2018-10-02T06:30:42.758Z,99650.08
2018-10-02T06:33:10.326Z,99652.19
2018-10-02T06:35:37.868Z,99658.44
2018-10-02T06:38:05.708Z,99655.09
2018-10-02T06:40:33.229Z,99663.74
2018-10-02T06:43:00.804Z,99670.91
2018-10-02T06:45:28.360Z,99672.39
2018-10-02T06:47:55.957Z,99672.14
2018-10-02T06:50:23.495Z,99656.59
2018-10-02T06:52:51.075Z,99663.02
2018-10-02T06:55:18.589Z,99650.02
2018-10-02T06:57:46.122Z,99659.88
2018-10-02T07:00:13.715Z,99672.70
2018-10-02T07:02:41.406Z,99667.73
2018-10-02T07:05:08.960Z,99650.56
2018-10-02T07:07:36.463Z,99644.63
2018-10-02T07:10:04.028Z,99637.52
2018-10-02T07:12:31.640Z,99630.36
2018-10-02T07:14:59.369Z,99637.39
2018-10-02T07:17:26.893Z,99629.13
2018-10-02T07:19:54.592Z,99620.31
2018-10-02T07:22:22.165Z,99627.97
2018-10-02T07:24:49.666Z,99625.03
2018-10-02T07:27:17.383Z,99623.53
2018-10-02T07:29:44.838Z,99615.66
2018-10-02T07:32:12.435Z,99618.63
2018-10-02T07:34:39.969Z,99627.28
2018-10-02T07:37:07.737Z,99643.61
2018-10-02T07:39:35.322Z,99635.09
2018-10-02T07:42:03.039Z,99632.11
2018-10-02T07:44:30.633Z,99644.16
2018-10-02T07:46:58.181Z,99649.00
2018-10-02T07:49:25.764Z,99660.11
2018-10-02T07:51:53.282Z,99646.49
2018-10-02T07:54:20.869Z,99650.23
2018-10-02T07:56:48.443Z,99652.52
2018-10-02T07:59:16.006Z,99655.31
2018-10-02T08:01:43.526Z,99632.16
2018-10-02T08:04:11.088Z,99634.81
2018-10-02T08:06:38.604Z,99628.50
2018-10-02T08:09:06.151Z,99638.29
2018-10-02T08:11:33.718Z,99630.89
2018-10-02T08:14:01.229Z,99626.34
2018-10-02T08:16:28.897Z,99627.43
2018-10-02T08:18:56.450Z,99627.17
2018-10-02T08:21:24.116Z,99647.09
2018-10-02T08:23:51.666Z,99638.83
2018-10-02T08:26:19.203Z,99639.22
2018-10-02T08:28:46.820Z,99634.50
2018-10-02T08:31:14.471Z,99641.80
2018-10-02T08:33:41.997Z,99631.81
2018-10-02T08:36:09.695Z,99638.09
2018-10-02T08:38:37.158Z,99636.41
2018-10-02T08:41:04.734Z,99625.08
2018-10-02T08:43:32.318Z,99625.55
2018-10-02T08:45:59.864Z,99619.59
2018-10-02T08:48:27.395Z,99614.97
2018-10-02T08:50:54.997Z,99618.42
2018-10-02T08:53:22.573Z,99613.97
2018-10-02T08:55:50.034Z,99620.59
2018-10-02T08:58:17.584Z,99616.94
2018-10-02T09:00:45.536Z,99623.34
2018-10-02T09:03:13.136Z,99613.98
2018-10-02T09:05:40.630Z,99608.95
2018-10-02T09:08:08.170Z,99606.32
2018-10-02T09:10:35.737Z,99598.69
2018-10-02T09:13:03.358Z,99598.61
2018-10-02T09:15:31.056Z,99590.80
2018-10-02T09:17:58.801Z,99582.16
2018-10-02T09:20:26.513Z,99583.05
2018-10-02T09:22:54.066Z,99562.06
2018-10-02T09:25:21.658Z,99586.18
2018-10-02T09:27:49.326Z,99570.50
2018-10-02T09:30:17.171Z,99568.06
2018-10-02T09:32:50.313Z,99568.77
2018-10-02T09:35:34.562Z,99572.57
2018-10-02T09:38:07.562Z,99577.41
2018-10-02T09:40:50.854Z,99561.91
2018-10-02T09:43:18.425Z,99556.30
2018-10-02T09:45:46.040Z,99556.86
2018-10-02T09:48:13.558Z,99555.91
2018-10-02T09:50:41.180Z,99555.03
2018-10-02T09:53:08.661Z,99556.37
2018-10-02T09:55:36.436Z,99554.88
2018-10-02T09:58:04.089Z,99564.31
2018-10-02T10:00:32.885Z,99559.52
2018-10-02T10:03:00.472Z,99558.55
2018-10-02T10:05:28.242Z,99556.99
2018-10-02T10:07:56.108Z,99559.78
2018-10-02T10:10:23.729Z,99555.11
2018-10-02T10:12:51.287Z,99551.72
2018-10-02T10:15:18.837Z,99535.75
2018-10-02T10:17:46.352Z,99527.52
2018-10-02T10:20:14.135Z,99526.46
2018-10-02T10:22:41.828Z,99533.53
2018-10-02T10:25:09.341Z,99532.50
2018-10-02T10:27:36.917Z,99526.80
2018-10-02T10:30:04.549Z,99514.80
2018-10-02T10:32:32.120Z,99516.34
2018-10-02T10:34:59.756Z,99518.53
2018-10-02T10:37:27.235Z,99513.87
2018-10-02T10:39:54.808Z,99511.95
2018-10-02T10:42:22.370Z,99503.37
2018-10-02T10:44:49.908Z,99525.77
2018-10-02T10:47:17.466Z,99530.30
2018-10-02T10:49:45.026Z,99514.45
2018-10-02T10:52:12.601Z,99511.08
2018-10-02T10:54:40.159Z,99521.01
2018-10-02T10:57:07.801Z,99515.09
2018-10-02T10:59:35.385Z,99527.09
2018-10-02T11:02:02.922Z,99534.22
2018-10-02T11:04:30.699Z,99506.81
2018-10-02T11:06:58.314Z,99515.36
2018-10-02T11:09:25.986Z,99525.94
2018-10-02T11:11:53.473Z,99529.82
2018-10-02T11:14:21.066Z,99510.63
2018-10-02T11:16:48.707Z,99507.39
2018-10-02T11:19:16.486Z,99517.06
2018-10-02T11:21:44.471Z,99523.82
2018-10-02T11:24:12.174Z,99524.77
2018-10-02T11:26:39.935Z,99514.83
2018-10-02T11:29:07.651Z,99519.84
2018-10-02T11:31:35.294Z,99526.99
2018-10-02T11:34:03.011Z,99520.41
2018-10-02T11:36:30.770Z,99516.69
2018-10-02T11:38:58.463Z,99518.19
2018-10-02T11:41:26.214Z,99516.03
2018-10-02T11:43:53.939Z,99509.80
2018-10-02T11:46:21.930Z,99497.44
2018-10-02T11:48:49.871Z,99491.30
2018-10-02T11:51:17.597Z,99487.31
2018-10-02T11:53:45.394Z,99486.89
2018-10-02T11:56:13.262Z,99497.20
2018-10-02T11:58:41.013Z,99493.22
2018-10-02T12:01:08.747Z,99493.63
2018-10-02T12:03:36.494Z,99485.73
2018-10-02T12:06:04.149Z,99488.25
2018-10-02T12:08:31.846Z,99493.16
2018-10-02T12:10:59.576Z,99480.30
2018-10-02T12:13:27.212Z,99479.36
2018-10-02T12:15:54.982Z,99480.42
2018-10-02T12:18:22.519Z,99485.06
2018-10-02T12:20:50.196Z,99484.64
2018-10-02T12:23:18.019Z,99491.93
2018-10-02T12:25:45.641Z,99479.54
2018-10-02T12:28:13.420Z,99475.81
2018-10-02T12:30:41.182Z,99475.47
2018-10-02T12:33:09.065Z,99470.20
2018-10-02T12:35:36.687Z,99470.60
2018-10-02T12:38:04.366Z,99458.20
2018-10-02T12:40:32.243Z,99447.67
2018-10-02T12:42:59.942Z,99459.44
2018-10-02T12:45:27.590Z,99460.00
2018-10-02T12:47:56.152Z,99460.56
2018-10-02T12:50:23.924Z,99464.20
2018-10-02T12:52:51.899Z,99466.25
2018-10-02T12:55:19.535Z,99462.20
2018-10-02T12:57:47.226Z,99465.66
2018-10-02T13:00:14.847Z,99461.05
2018-10-02T13:02:42.806Z,99460.40
2018-10-02T13:05:10.593Z,99458.73
2018-10-02T13:07:38.235Z,99445.63
2018-10-02T13:10:06.056Z,99451.43
2018-10-02T13:12:33.877Z,99456.77
2018-10-02T13:15:01.468Z,99467.22
2018-10-02T13:17:29.222Z,99462.70
2018-10-02T13:19:57.009Z,99473.42
2018-10-02T13:22:24.825Z,99483.15
2018-10-02T13:24:52.744Z,99475.11
2018-10-02T13:27:20.254Z,99475.97
2018-10-02T13:29:47.768Z,99479.89
2018-10-02T13:32:15.355Z,99477.04
2018-10-02T13:34:42.997Z,99477.40
2018-10-02T13:37:10.519Z,99485.11
2018-10-02T13:39:38.041Z,99496.86
2018-10-02T13:42:05.732Z,99490.47
2018-10-02T13:44:33.276Z,99490.94
2018-10-02T13:47:00.967Z,99497.69
2018-10-02T13:49:28.569Z,99487.56
2018-10-02T13:51:56.168Z,99493.23
2018-10-02T13:54:23.710Z,99498.55
2018-10-02T13:56:51.283Z,99504.56
2018-10-02T13:59:18.833Z,99490.52
2018-10-02T14:01:46.629Z,99503.68
2018-10-02T14:04:14.177Z,99505.45
2018-10-02T14:06:41.758Z,99499.80
2018-10-02T14:09:09.347Z,99502.28
2018-10-02T14:11:36.913Z,99505.28
2018-10-02T14:14:04.483Z,99496.52
2018-10-02T14:16:32.076Z,99496.16
2018-10-02T14:18:59.666Z,99498.95
2018-10-02T14:21:27.253Z,99490.81
2018-10-02T14:23:54.766Z,99495.04
2018-10-02T14:26:22.333Z,99506.57
2018-10-02T14:28:49.892Z,99496.38
2018-10-02T14:31:17.417Z,99486.16
2018-10-02T14:33:45.108Z,99478.13
2018-10-02T14:36:12.687Z,99484.71
2018-10-02T14:38:40.274Z,99476.09
2018-10-02T14:41:07.834Z,99487.70
2018-10-02T14:43:35.358Z,99498.67
2018-10-02T14:46:02.952Z,99498.47
2018-10-02T14:48:30.508Z,99508.34
2018-10-02T14:50:58.090Z,99509.20
2018-10-02T14:53:25.683Z,99503.22
2018-10-02T14:55:53.217Z,99495.77
2018-10-02T14:58:20.788Z,99496.70
2018-10-02T15:00:48.474Z,99486.98
2018-10-02T15:03:16.066Z,99484.84
2018-10-02T15:05:43.631Z,99477.70
2018-10-02T15:08:11.308Z,99483.28
2018-10-02T15:10:38.955Z,99487.93
2018-10-02T15:13:06.550Z,99497.92
2018-10-02T15:15:34.242Z,99477.13
2018-10-02T15:18:01.792Z,99490.03
2018-10-02T15:20:29.376Z,99496.48
2018-10-02T15:22:57.136Z,99488.56
2018-10-02T15:25:24.824Z,99492.13
2018-10-02T15:27:52.418Z,99495.95
2018-10-02T15:30:20.618Z,99489.26
2018-10-02T15:32:48.156Z,99495.52
2018-10-02T15:35:15.764Z,99504.41
2018-10-02T15:37:43.373Z,99500.72
2018-10-02T15:40:10.959Z,99498.34
2018-10-02T15:42:38.486Z,99504.15
2018-10-02T15:45:06.175Z,99506.05
2018-10-02T15:47:33.794Z,99503.02
2018-10-02T15:50:01.368Z,99510.27
2018-10-02T15:52:28.988Z,99505.77
2018-10-02T15:54:56.528Z,99500.16
2018-10-02T15:57:24.102Z,99508.56
2018-10-02T15:59:51.804Z,99508.91
2018-10-02T16:02:19.403Z,99509.98
2018-10-02T16:04:46.992Z,99502.75
2018-10-02T16:07:14.565Z,99492.55
2018-10-02T16:09:42.093Z,99512.80
2018-10-02T16:12:09.688Z,99510.34
2018-10-02T16:14:37.272Z,99519.96
2018-10-02T16:17:04.799Z,99512.50
2018-10-02T16:19:32.372Z,99529.45
2018-10-02T16:22:00.141Z,99525.92
2018-10-02T16:24:27.681Z,99530.85
2018-10-02T16:26:55.294Z,99541.92
2018-10-02T16:29:22.829Z,99557.26
2018-10-02T16:31:50.391Z,99549.17
2018-10-02T16:34:17.930Z,99548.83
2018-10-02T16:36:45.560Z,99555.21
2018-10-02T16:39:13.104Z,99557.98
2018-10-02T16:41:40.695Z,99562.25
2018-10-02T16:44:08.248Z,99563.05
2018-10-02T16:46:35.892Z,99564.88
2018-10-02T16:49:03.470Z,99572.88
2018-10-02T16:51:31.045Z,99578.08
2018-10-02T16:53:58.558Z,99577.59
2018-10-02T16:56:26.355Z,99578.06
2018-10-02T16:58:54.010Z,99578.55
2018-10-02T17:01:21.519Z,99570.84
2018-10-02T17:03:49.145Z,99581.92
2018-10-02T17:06:16.670Z,99585.03
2018-10-02T17:08:44.217Z,99583.90
2018-10-02T17:11:11.804Z,99578.77
2018-10-02T17:13:39.373Z,99589.30
2018-10-02T17:16:06.892Z,99591.35
2018-10-02T17:18:34.440Z,99590.23
2018-10-02T17:21:02.228Z,99594.99
2018-10-02T17:23:29.757Z,99598.23
2018-10-02T17:25:57.330Z,99613.08
2018-10-02T17:28:24.867Z,99623.31
2018-10-02T17:30:52.493Z,99617.19
2018-10-02T17:33:20.026Z,99628.71
2018-10-02T17:35:47.611Z,99623.83
2018-10-02T17:38:15.203Z,99624.16
2018-10-02T17:40:42.767Z,99631.36
2018-10-02T17:43:10.302Z,99635.29
2018-10-02T17:45:37.847Z,99639.62
2018-10-02T17:48:05.445Z,99633.42
2018-10-02T17:50:33.044Z,99639.25
2018-10-02T17:53:00.575Z,99640.84
2018-10-02T17:55:28.114Z,99649.66
2018-10-02T17:57:55.632Z,99651.22
2018-10-02T18:00:23.225Z,99650.50
2018-10-02T18:02:50.807Z,99652.14
2018-10-02T18:05:18.376Z,99652.84
2018-10-02T18:07:45.929Z,99657.35
2018-10-02T18:10:13.494Z,99659.87
2018-10-02T18:12:41.060Z,99664.27
2018-10-02T18:15:08.597Z,99661.62
2018-10-02T18:17:36.186Z,99667.98
2018-10-02T18:20:03.724Z,99675.41
2018-10-02T18:22:31.291Z,99669.71
2018-10-02T18:24:58.885Z,99677.72
2018-10-02T18:27:26.498Z,99669.96
2018-10-02T18:29:54.007Z,99683.50
2018-10-02T18:32:21.527Z,99686.81
2018-10-02T18:34:49.340Z,99676.84
2018-10-02T18:37:16.880Z,99671.53
2018-10-02T18:39:44.468Z,99680.89
2018-10-02T18:42:12.070Z,99682.05
2018-10-02T18:44:39.750Z,99690.56
2018-10-02T18:47:07.316Z,99681.11
2018-10-02T18:49:34.837Z,99689.89
2018-10-02T18:52:02.438Z,99680.76
2018-10-02T18:54:30.183Z,99672.75
2018-10-02T18:56:57.768Z,99666.44
2018-10-02T18:59:25.344Z,99666.55
2018-10-02T19:01:52.922Z,99669.70
2018-10-02T19:04:20.754Z,99676.86
2018-10-02T19:06:48.432Z,99673.62
2018-10-02T19:09:15.993Z,99679.86
2018-10-02T19:11:43.605Z,99682.21
2018-10-02T19:14:11.119Z,99681.58
2018-10-02T19:16:38.679Z,99686.77
2018-10-02T19:19:06.328Z,99693.27
2018-10-02T19:21:33.910Z,99701.80
2018-10-02T19:24:01.471Z,99702.81
2018-10-02T19:26:28.984Z,99707.31
2018-10-02T19:28:56.617Z,99703.67
2018-10-02T19:31:39.051Z,99707.98
2018-10-02T19:34:06.590Z,99709.08
2018-10-02T19:36:34.157Z,99723.02
2018-10-02T19:39:01.688Z,99732.28
2018-10-02T19:41:29.444Z,99724.38
2018-10-02T19:43:57.003Z,99716.34
2018-10-02T19:46:24.629Z,99726.17
2018-10-02T19:48:52.240Z,99714.48
2018-10-02T19:51:19.763Z,99727.53
2018-10-02T19:53:47.575Z,99732.28
2018-10-02T19:56:15.673Z,99734.44
2018-10-02T19:58:43.663Z,99729.76
2018-10-02T20:01:11.743Z,99737.55
2018-10-02T20:03:39.314Z,99725.77
2018-10-02T20:06:06.883Z,99728.05
2018-10-02T20:08:34.395Z,99729.39
2018-10-02T20:11:01.934Z,99734.27
2018-10-02T20:13:29.553Z,99734.89
2018-10-02T20:15:57.116Z,99735.13
2018-10-02T20:18:24.669Z,99741.70
2018-10-02T20:20:52.249Z,99738.75
2018-10-02T20:23:19.781Z,99738.90
2018-10-02T20:25:47.348Z,99727.03
2018-10-02T20:28:14.894Z,99727.99
2018-10-02T20:30:42.523Z,99736.86
2018-10-02T20:33:10.035Z,99735.30
2018-10-02T20:35:37.605Z,99734.39
2018-10-02T20:38:05.290Z,99738.42
2018-10-02T20:40:32.820Z,99747.18
2018-10-02T20:43:00.408Z,99745.72
2018-10-02T20:45:27.910Z,99745.97
2018-10-02T20:47:55.464Z,99751.63
2018-10-02T20:50:23.170Z,99758.83
2018-10-02T20:52:50.740Z,99752.54
2018-10-02T20:55:18.304Z,99750.55
2018-10-02T20:57:45.870Z,99755.88
2018-10-02T21:00:13.393Z,99756.57
2018-10-02T21:02:40.959Z,99743.46
2018-10-02T21:05:08.519Z,99751.63
2018-10-02T21:07:36.246Z,99744.64
2018-10-02T21:10:03.779Z,99745.98
2018-10-02T21:12:31.300Z,99744.02
2018-10-02T21:14:58.863Z,99746.48
2018-10-02T21:17:26.429Z,99746.53
2018-10-02T21:19:53.974Z,99748.38
2018-10-02T21:22:21.715Z,99746.81
2018-10-02T21:24:49.229Z,99751.33
2018-10-02T21:27:16.749Z,99749.51
2018-10-02T21:29:44.298Z,99750.02
2018-10-02T21:32:11.823Z,99750.34
2018-10-02T21:34:39.700Z,99744.64
2018-10-02T21:37:07.163Z,99746.12
2018-10-02T21:39:34.740Z,99748.98
2018-10-02T21:42:02.238Z,99743.49
2018-10-02T21:44:29.776Z,99741.22
2018-10-02T21:46:57.368Z,99746.28
2018-10-02T21:49:24.873Z,99744.42
2018-10-02T21:51:52.445Z,99742.00
2018-10-02T21:54:20.597Z,99744.68
2018-10-02T21:56:48.116Z,99732.90
2018-10-02T21:59:15.717Z,99741.44
2018-10-02T22:01:43.393Z,99738.59
2018-10-02T22:04:10.962Z,99736.36
2018-10-02T22:06:38.713Z,99732.00
2018-10-02T22:09:06.273Z,99729.52
2018-10-02T22:11:33.858Z,99726.30
2018-10-02T22:14:01.385Z,99736.63
2018-10-02T22:16:28.922Z,99747.88
2018-10-02T22:18:56.490Z,99748.63
2018-10-02T22:21:24.128Z,99743.64
2018-10-02T22:23:51.701Z,99737.62
2018-10-02T22:26:19.217Z,99739.69
2018-10-02T22:28:46.793Z,99739.83
2018-10-02T22:31:14.371Z,99728.43
2018-10-02T22:33:42.001Z,99732.45
2018-10-02T22:36:09.498Z,99732.53
2018-10-02T22:38:37.035Z,99723.62
2018-10-02T22:41:04.555Z,99733.47
2018-10-02T22:43:32.099Z,99730.69
2018-10-02T22:45:59.661Z,99738.73
2018-10-02T22:48:27.207Z,99740.66
2018-10-02T22:50:54.758Z,99734.63
2018-10-02T22:53:22.280Z,99740.00
2018-10-02T22:55:49.835Z,99739.39
2018-10-02T22:58:17.353Z,99731.48
2018-10-02T23:00:44.986Z,99733.55
2018-10-02T23:03:12.497Z,99737.59
2018-10-02T23:05:40.229Z,99739.09
2018-10-02T23:08:07.749Z,99741.18
2018-10-02T23:10:35.305Z,99734.47
2018-10-02T23:13:02.875Z,99736.18
2018-10-02T23:15:30.452Z,99735.73
2018-10-02T23:17:57.978Z,99735.48
2018-10-02T23:20:25.501Z,99736.66
2018-10-02T23:22:53.044Z,99739.84
2018-10-02T23:25:20.772Z,99740.80
2018-10-02T23:27:48.335Z,99740.73
2018-10-02T23:30:15.879Z,99745.77
2018-10-02T23:32:43.458Z,99751.02
2018-10-02T23:35:11.039Z,99756.56
2018-10-02T23:37:38.609Z,99753.03
2018-10-02T23:40:06.206Z,99747.64
2018-10-02T23:42:33.740Z,99754.58
2018-10-02T23:45:01.257Z,99755.54
2018-10-02T23:47:28.825Z,99758.15
2018-10-02T23:49:56.368Z,99758.20
2018-10-02T23:52:23.949Z,99757.70
2018-10-02T23:54:51.487Z,99767.64
2018-10-02T23:57:19.040Z,99757.23
2018-10-02T23:59:46.762Z,99768.12
